createdAt,value
2018-08-23T00:00:02.567Z,8.10
2018-08-23T00:05:05.816Z,8.40
2018-08-23T00:10:09.105Z,8.83
2018-08-23T00:15:13.376Z,8.23
2018-08-23T00:20:20.979Z,8.10
2018-08-23T00:25:24.209Z,9.27
2018-08-23T00:30:31.433Z,8.87
2018-08-23T00:35:36.251Z,9.10
2018-08-23T00:40:42.860Z,8.67
2018-08-23T00:45:46.102Z,9.10
2018-08-23T00:50:50.997Z,8.93
2018-08-23T00:56:11.023Z,9.50
2018-08-23T01:01:14.520Z,10.23
2018-08-23T01:06:20.588Z,8.87
2018-08-23T01:11:23.828Z,9.03
2018-08-23T01:16:27.074Z,8.77
2018-08-23T01:21:31.852Z,9.40
2018-08-23T01:26:35.251Z,9.50
2018-08-23T01:31:38.496Z,10.00
2018-08-23T01:36:41.996Z,9.20
2018-08-23T01:41:45.236Z,9.73
2018-08-23T01:46:48.484Z,11.00
2018-08-23T01:51:51.732Z,9.70
2018-08-23T01:56:54.972Z,9.53
2018-08-23T02:01:59.460Z,9.90
2018-08-23T02:07:02.703Z,9.10
2018-08-23T02:12:05.947Z,9.87
2018-08-23T02:17:09.193Z,10.80
2018-08-23T02:22:12.847Z,11.00
2018-08-23T02:27:17.577Z,9.90
2018-08-23T02:32:20.807Z,9.90
2018-08-23T02:37:24.487Z,10.30
2018-08-23T02:42:27.764Z,10.93
2018-08-23T02:47:31.776Z,10.60
2018-08-23T02:52:35.612Z,13.60
2018-08-23T02:57:47.820Z,10.67
2018-08-23T03:02:51.075Z,11.97
2018-08-23T03:07:54.352Z,10.87
2018-08-23T03:12:57.560Z,10.13
2018-08-23T03:18:01.232Z,10.37
2018-08-23T03:23:04.423Z,10.87
2018-08-23T03:28:07.624Z,11.50
2018-08-23T03:33:10.835Z,10.97
2018-08-23T03:38:14.123Z,10.77
2018-08-23T03:43:17.336Z,12.17
2018-08-23T03:48:20.536Z,11.30
2018-08-23T03:53:47.273Z,11.90
2018-08-23T03:58:50.500Z,12.50
2018-08-23T04:03:53.714Z,11.53
2018-08-23T04:08:56.912Z,13.47
2018-08-23T04:14:00.104Z,13.03
2018-08-23T04:19:03.315Z,12.67
2018-08-23T04:24:06.528Z,12.20
2018-08-23T04:29:09.739Z,12.00
2018-08-23T04:34:12.983Z,14.20
2018-08-23T04:39:16.204Z,13.80
2018-08-23T04:44:19.408Z,13.17
2018-08-23T04:49:22.620Z,12.70
2018-08-23T04:54:25.832Z,12.80
2018-08-23T04:59:29.064Z,10.77
2018-08-23T05:04:32.284Z,12.70
2018-08-23T05:09:35.500Z,13.37
2018-08-23T05:14:38.772Z,14.33
2018-08-23T05:19:42.023Z,14.43
2018-08-23T05:24:45.268Z,13.50
2018-08-23T05:29:48.540Z,12.70
2018-08-23T05:34:51.747Z,12.27
2018-08-23T05:39:54.989Z,11.87
2018-08-23T05:44:58.240Z,12.80
2018-08-23T05:50:01.568Z,12.63
2018-08-23T05:55:04.812Z,13.47
2018-08-23T06:00:08.048Z,12.57
2018-08-23T06:05:11.292Z,13.83
2018-08-23T06:10:14.507Z,12.50
2018-08-23T06:15:17.703Z,12.20
2018-08-23T06:20:20.920Z,13.93
2018-08-23T06:25:24.123Z,12.67
2018-08-23T06:30:27.368Z,13.03
2018-08-23T06:35:33.611Z,13.20
2018-08-23T06:40:36.864Z,14.33
2018-08-23T06:45:40.093Z,15.00
2018-08-23T06:50:47.556Z,16.37
2018-08-23T06:55:50.800Z,14.47
2018-08-23T07:00:54.024Z,18.23
2018-08-23T07:05:57.310Z,14.50
2018-08-23T07:11:06.855Z,15.77
2018-08-23T07:16:10.153Z,15.03
2018-08-23T07:21:13.459Z,15.53
2018-08-23T07:26:16.701Z,14.20
2018-08-23T07:31:19.932Z,14.30
2018-08-23T07:36:29.100Z,16.30
2018-08-23T07:41:32.359Z,29.03
2018-08-23T07:46:35.609Z,15.83
2018-08-23T07:51:38.893Z,12.43
2018-08-23T07:56:42.180Z,13.20
2018-08-23T08:01:45.442Z,14.93
2018-08-23T08:06:48.716Z,20.27
2018-08-23T08:11:57.245Z,19.00
2018-08-23T08:17:08.624Z,23.37
2018-08-23T08:22:11.828Z,27.40
2018-08-23T08:27:15.082Z,17.93
2018-08-23T08:32:18.256Z,15.37
2018-08-23T08:37:21.512Z,16.70
2018-08-23T08:42:28.520Z,16.73
2018-08-23T08:47:32.388Z,18.50
2018-08-23T08:52:35.743Z,20.83
2018-08-23T08:57:42.221Z,16.00
2018-08-23T09:02:45.451Z,14.67
2018-08-23T09:07:48.699Z,18.67
2018-08-23T09:12:52.940Z,14.70
2018-08-23T09:17:56.182Z,20.20
2018-08-23T09:22:59.440Z,20.60
2018-08-23T09:28:03.525Z,17.47
2018-08-23T09:33:09.219Z,14.67
2018-08-23T09:38:14.479Z,13.97
2018-08-23T09:43:17.776Z,23.60
2018-08-23T09:48:22.069Z,23.73
2018-08-23T09:53:26.079Z,14.07
2018-08-23T09:58:46.760Z,17.50
2018-08-23T10:03:55.320Z,18.00
2018-08-23T10:09:14.471Z,23.73
2018-08-23T10:15:20.688Z,21.10
2018-08-23T10:20:29.376Z,15.43
2018-08-23T10:25:38.408Z,18.50
2018-08-23T10:30:41.977Z,12.60
2018-08-23T10:35:51.543Z,12.60
2018-08-23T10:40:58.979Z,15.80
2018-08-23T10:46:03.035Z,11.00
2018-08-23T10:51:06.284Z,11.20
2018-08-23T10:56:09.454Z,11.67
2018-08-23T11:01:12.655Z,12.57
2018-08-23T11:06:15.887Z,12.13
2018-08-23T11:11:24.469Z,10.20
2018-08-23T11:16:33.083Z,10.67
2018-08-23T11:21:36.275Z,10.50
2018-08-23T11:26:39.477Z,9.80
2018-08-23T11:31:42.713Z,9.77
2018-08-23T11:36:45.880Z,9.07
2018-08-23T11:41:49.351Z,8.93
2018-08-23T11:46:52.545Z,8.97
2018-08-23T11:51:55.744Z,8.77
2018-08-23T11:56:58.943Z,7.93
2018-08-23T12:02:02.220Z,8.53
2018-08-23T12:07:05.662Z,8.37
2018-08-23T12:12:08.899Z,7.87
2018-08-23T12:17:12.360Z,9.80
2018-08-23T12:22:15.605Z,8.93
2018-08-23T12:27:18.878Z,8.53
2018-08-23T12:32:25.904Z,8.00
2018-08-23T12:37:34.639Z,7.50
2018-08-23T12:42:45.841Z,7.50
2018-08-23T12:47:49.052Z,8.30
2018-08-23T12:52:52.296Z,8.60
2018-08-23T12:57:55.532Z,9.50
2018-08-23T13:02:58.872Z,10.27
2018-08-23T13:08:02.077Z,9.60
2018-08-23T13:13:05.647Z,11.03
2018-08-23T13:18:08.896Z,11.10
2018-08-23T13:23:12.151Z,11.27
2018-08-23T13:28:15.451Z,10.57
2018-08-23T13:33:18.672Z,11.20
2018-08-23T13:38:21.907Z,16.20
2018-08-23T13:43:25.146Z,11.13
2018-08-23T13:48:28.475Z,9.23
2018-08-23T13:53:31.603Z,9.23
2018-08-23T13:58:34.843Z,8.80
2018-08-23T14:03:38.055Z,9.10
2018-08-23T14:08:41.251Z,7.57
2018-08-23T14:13:44.459Z,6.20
2018-08-23T14:18:47.656Z,6.60
2018-08-23T14:23:50.950Z,6.57
2018-08-23T14:28:54.136Z,5.73
2018-08-23T14:33:57.385Z,5.37
2018-08-23T14:39:00.580Z,5.60
2018-08-23T14:44:06.791Z,5.23
2018-08-23T14:49:09.997Z,4.40
2018-08-23T14:54:18.516Z,5.30
2018-08-23T14:59:21.767Z,4.70
2018-08-23T15:04:25.035Z,4.87
2018-08-23T15:09:29.292Z,4.87
2018-08-23T15:14:32.548Z,4.40
2018-08-23T15:19:35.829Z,4.13
2018-08-23T15:24:39.337Z,3.97
2018-08-23T15:29:42.640Z,3.80
2018-08-23T15:34:45.859Z,4.60
2018-08-23T15:39:49.100Z,3.57
2018-08-23T15:44:52.343Z,3.50
2018-08-23T15:49:55.593Z,3.40
2018-08-23T15:54:58.932Z,3.40
2018-08-23T16:00:02.033Z,2.90
2018-08-23T16:05:05.428Z,3.47
2018-08-23T16:10:09.502Z,3.83
2018-08-23T16:15:17.888Z,3.77
2018-08-23T16:20:27.469Z,4.07
2018-08-23T16:25:34.905Z,4.27
2018-08-23T16:30:40.518Z,3.50
2018-08-23T16:35:43.775Z,3.53
2018-08-23T16:40:46.983Z,3.97
2018-08-23T16:45:50.195Z,3.57
2018-08-23T16:50:53.388Z,3.97
2018-08-23T16:55:56.583Z,4.23
2018-08-23T17:00:59.799Z,4.10
2018-08-23T17:06:03.001Z,5.30
2018-08-23T17:11:06.195Z,4.20
2018-08-23T17:16:14.828Z,4.80
2018-08-23T17:21:18.029Z,5.50
2018-08-23T17:26:22.171Z,5.13
2018-08-23T17:31:25.381Z,4.60
2018-08-23T17:36:28.589Z,5.43
2018-08-23T17:41:31.789Z,5.03
2018-08-23T17:46:35.115Z,4.53
2018-08-23T17:51:38.339Z,5.10
2018-08-23T17:56:41.569Z,4.60
2018-08-23T18:01:44.793Z,4.70
2018-08-23T18:06:48.055Z,5.27
2018-08-23T18:11:51.311Z,5.07
2018-08-23T18:16:58.522Z,5.70
2018-08-23T18:22:01.772Z,5.73
2018-08-23T18:27:05.124Z,5.63
2018-08-23T18:32:08.439Z,4.90
2018-08-23T18:37:11.704Z,5.40
2018-08-23T18:42:15.006Z,5.77
2018-08-23T18:47:18.372Z,5.77
2018-08-23T18:52:21.590Z,5.80
2018-08-23T18:57:24.844Z,6.20
2018-08-23T19:02:28.172Z,5.43
2018-08-23T19:07:36.883Z,4.93
2018-08-23T19:12:40.448Z,4.97
2018-08-23T19:17:44.262Z,5.13
2018-08-23T19:22:47.509Z,6.10
2018-08-23T19:27:50.789Z,7.00
2018-08-23T19:32:54.094Z,6.03
2018-08-23T19:37:57.357Z,7.10
2018-08-23T19:43:02.565Z,6.37
2018-08-23T19:48:05.870Z,6.50
2018-08-23T19:53:09.125Z,7.60
2018-08-23T19:58:12.377Z,7.10
2018-08-23T20:03:15.672Z,6.87
2018-08-23T20:08:19.004Z,6.80
2018-08-23T20:13:22.284Z,6.90
2018-08-23T20:18:25.563Z,6.93
2018-08-23T20:23:28.800Z,7.43
2018-08-23T20:28:32.090Z,6.90
2018-08-23T20:33:35.364Z,7.03
2018-08-23T20:38:38.635Z,7.13
2018-08-23T20:43:41.864Z,6.90
2018-08-23T20:48:45.116Z,8.00
2018-08-23T20:53:48.483Z,8.73
2018-08-23T20:58:51.795Z,9.60
2018-08-23T21:03:55.093Z,8.97
2018-08-23T21:08:58.279Z,7.50
2018-08-23T21:14:01.631Z,7.40
2018-08-23T21:19:04.968Z,7.40
2018-08-23T21:24:08.227Z,7.60
2018-08-23T21:29:11.451Z,7.80
2018-08-23T21:34:14.653Z,6.80
2018-08-23T21:44:43.491Z,7.70
2018-08-23T21:49:46.708Z,7.30
2018-08-23T21:54:49.940Z,7.27
2018-08-23T21:59:53.151Z,6.83
2018-08-23T22:04:57.495Z,7.17
2018-08-23T22:10:00.769Z,6.60
2018-08-23T22:15:03.888Z,6.60
2018-08-23T22:20:07.096Z,6.27
2018-08-23T22:25:10.303Z,7.13
2018-08-23T22:30:13.507Z,6.90
2018-08-23T22:35:16.736Z,6.10
2018-08-23T22:40:19.939Z,5.70
2018-08-23T22:45:23.148Z,5.97
2018-08-23T22:50:26.365Z,6.07
2018-08-23T22:55:29.572Z,5.90
2018-08-23T23:00:38.264Z,4.60
2018-08-23T23:05:41.546Z,5.03
2018-08-23T23:10:44.743Z,4.37
2018-08-23T23:15:47.963Z,4.50
2018-08-23T23:20:51.175Z,4.00
2018-08-23T23:25:54.394Z,4.50
2018-08-23T23:30:57.630Z,4.23
2018-08-23T23:36:00.839Z,4.67
2018-08-23T23:41:04.035Z,3.70
2018-08-23T23:46:07.235Z,3.93
2018-08-23T23:51:10.509Z,4.03
2018-08-23T23:56:13.702Z,3.57
